Time;durP1;ratioP1;P1;durP2;ratioP2;P2;SDS_P1;SDS_P2;PMS_P1;PMS_P2;Temp;Humidity;BMP_temperature;BMP_pressure;BME280_temperature;BME280_humidity;BME280_pressure;Samples;Min_cycle;Max_cycle;Signal;HPM_P1;HPM_P2
2023/12/16 00:00:07;;;;;;;0.40;0.40;;;;;;;3.99;94.22;95676.06;4951981;28;20280;-70
2023/12/16 00:02:33;;;;;;;1.37;1.33;;;;;;;3.92;94.08;95688.06;4953041;28;20237;-71
2023/12/16 00:04:58;;;;;;;1.37;1.37;;;;;;;3.84;94.10;95686.22;4963323;28;20186;-70
2023/12/16 00:07:24;;;;;;;0.60;0.60;;;;;;;3.77;94.39;95678.19;4950667;28;20183;-71
2023/12/16 00:09:50;;;;;;;0.50;0.50;;;;;;;3.88;94.67;95684.97;4953592;28;20186;-71
2023/12/16 00:12:16;;;;;;;0.40;0.40;;;;;;;4.05;94.27;95702.38;4955176;28;20169;-71
2023/12/16 00:14:42;;;;;;;0.50;0.50;;;;;;;3.92;94.36;95668.06;4964319;28;20555;-71
2023/12/16 00:17:08;;;;;;;0.40;0.40;;;;;;;4.00;93.71;95698.56;4952242;28;20182;-70
2023/12/16 00:19:33;;;;;;;0.50;0.50;;;;;;;3.91;93.86;95686.44;4951491;28;20662;-71
2023/12/16 00:21:59;;;;;;;0.73;0.73;;;;;;;4.09;94.22;95701.09;4951890;28;20281;-71
2023/12/16 00:24:25;;;;;;;0.50;0.50;;;;;;;4.04;93.45;95702.50;4952280;28;20233;-70
2023/12/16 00:26:51;;;;;;;0.50;0.50;;;;;;;3.99;93.14;95702.94;4951701;28;20792;-70
2023/12/16 00:29:19;;;;;;;0.50;0.50;;;;;;;4.24;93.21;95700.56;4959018;28;20189;-71
2023/12/16 00:31:45;;;;;;;0.40;0.40;;;;;;;4.11;92.42;95706.97;4952153;28;20181;-71
2023/12/16 00:34:11;;;;;;;0.40;0.40;;;;;;;4.04;92.85;95712.94;4952508;28;20174;-70
2023/12/16 00:36:36;;;;;;;0.77;0.77;;;;;;;3.73;93.00;95676.81;4965054;28;20170;-70
2023/12/16 00:39:03;;;;;;;0.63;0.63;;;;;;;4.06;92.78;95727.44;4971598;28;20683;-70
2023/12/16 00:41:29;;;;;;;0.50;0.50;;;;;;;4.02;93.04;95722.69;4971528;28;20193;-70
2023/12/16 00:43:55;;;;;;;0.40;0.40;;;;;;;4.01;93.25;95721.84;4971894;28;20649;-70
2023/12/16 00:46:20;;;;;;;0.40;0.40;;;;;;;3.99;92.57;95713.38;4972114;28;20248;-70
2023/12/16 00:48:46;;;;;;;0.50;0.50;;;;;;;3.88;92.86;95731.84;4971963;28;20272;-70
2023/12/16 00:51:11;;;;;;;0.50;0.50;;;;;;;3.84;93.32;95738.28;4960008;28;20183;-71
2023/12/16 00:53:37;;;;;;;0.80;0.80;;;;;;;3.74;93.49;95751.38;4952842;28;20649;-71
2023/12/16 00:56:03;;;;;;;0.40;0.40;;;;;;;3.64;93.95;95734.16;4952103;28;20166;-71
2023/12/16 00:58:29;;;;;;;3.63;3.40;;;;;;;3.78;94.42;95744.09;4952955;28;20178;-70
2023/12/16 01:00:54;;;;;;;0.40;0.40;;;;;;;3.50;94.13;95729.47;4952626;28;20186;-71
2023/12/16 01:03:20;;;;;;;0.43;0.43;;;;;;;3.47;94.56;95758.38;4952542;28;20206;-71
2023/12/16 01:05:45;;;;;;;0.40;0.40;;;;;;;3.06;95.32;95692.84;4952455;28;20174;-71
2023/12/16 01:08:11;;;;;;;0.77;0.60;;;;;;;3.33;95.50;95762.28;4952452;28;20182;-71
2023/12/16 01:10:37;;;;;;;0.40;0.40;;;;;;;3.21;95.98;95750.41;4952331;28;20658;-71
2023/12/16 01:13:05;;;;;;;0.40;0.40;;;;;;;3.38;96.22;95758.28;4952491;28;20246;-71
2023/12/16 01:15:31;;;;;;;0.67;0.67;;;;;;;3.31;95.55;95749.41;4952440;28;20186;-71
2023/12/16 01:17:56;;;;;;;0.50;0.50;;;;;;;3.46;95.85;95764.56;4952245;28;20258;-71
2023/12/16 01:20:22;;;;;;;0.60;0.60;;;;;;;3.44;95.87;95756.06;4955547;28;20268;-71
2023/12/16 01:22:48;;;;;;;0.53;0.53;;;;;;;3.31;95.45;95748.59;4963627;28;20609;-71
2023/12/16 01:25:13;;;;;;;0.40;0.40;;;;;;;3.46;95.83;95757.56;4952286;28;20725;-71
2023/12/16 01:27:39;;;;;;;0.90;0.73;;;;;;;3.26;95.75;95737.81;4952121;28;20185;-71
2023/12/16 01:30:06;;;;;;;0.50;0.50;;;;;;;3.39;95.93;95769.50;4952268;28;20178;-71
2023/12/16 01:32:32;;;;;;;1.00;0.93;;;;;;;3.41;95.88;95757.19;4952000;28;20189;-70
2023/12/16 01:34:58;;;;;;;0.40;0.40;;;;;;;3.47;95.73;95767.00;4951980;28;20257;-71
2023/12/16 01:37:28;;;;;;;0.47;0.47;;;;;;;3.23;95.95;95744.13;4963721;28;20236;-71
2023/12/16 01:39:53;;;;;;;0.50;0.50;;;;;;;3.34;95.91;95748.31;4971140;28;20173;-71
2023/12/16 01:42:23;;;;;;;0.43;0.43;;;;;;;3.46;95.74;95764.56;4954225;28;20199;-71
2023/12/16 01:44:50;;;;;;;0.40;0.40;;;;;;;3.39;95.54;95756.50;4951773;28;20266;-71
2023/12/16 01:47:17;;;;;;;0.40;0.40;;;;;;;3.64;95.43;95775.81;4953498;28;20232;-70
2023/12/16 01:49:44;;;;;;;0.60;0.60;;;;;;;3.71;95.14;95769.09;4970956;28;20241;-70
2023/12/16 01:52:11;;;;;;;0.50;0.50;;;;;;;3.61;94.77;95747.50;4969198;28;20165;-69
2023/12/16 01:54:38;;;;;;;0.50;0.50;;;;;;;3.62;94.33;95757.75;4951789;28;20189;-70
2023/12/16 01:57:04;;;;;;;0.50;0.50;;;;;;;3.79;94.47;95775.19;4955766;28;20636;-69
2023/12/16 01:59:30;;;;;;;0.50;0.50;;;;;;;3.66;94.02;95766.09;4951875;28;20223;-70
2023/12/16 02:01:57;;;;;;;0.40;0.40;;;;;;;3.82;94.26;95784.47;4951481;28;20229;-70
2023/12/16 02:04:22;;;;;;;0.97;0.90;;;;;;;3.67;93.99;95772.94;4951604;28;20609;-70
2023/12/16 02:06:48;;;;;;;0.50;0.50;;;;;;;3.41;93.93;95760.59;4951874;28;20202;-70
2023/12/16 02:09:16;;;;;;;0.40;0.40;;;;;;;3.53;94.61;95799.47;4951659;28;20189;-70
2023/12/16 02:11:41;;;;;;;0.93;0.93;;;;;;;3.58;94.60;95797.22;4951488;28;20182;-70
2023/12/16 02:14:07;;;;;;;0.40;0.40;;;;;;;3.58;94.80;95782.44;4951602;28;20182;-70
2023/12/16 02:16:33;;;;;;;0.50;0.50;;;;;;;3.46;94.45;95788.00;4951411;28;20673;-70
2023/12/16 02:18:58;;;;;;;0.40;0.40;;;;;;;3.37;95.03;95785.25;4951616;28;20202;-70
2023/12/16 02:21:24;;;;;;;0.50;0.50;;;;;;;3.47;95.46;95800.00;4951381;28;20981;-70
2023/12/16 02:23:50;;;;;;;0.47;0.47;;;;;;;3.34;95.53;95782.97;4951499;28;20187;-70
2023/12/16 02:26:15;;;;;;;0.40;0.40;;;;;;;3.47;95.60;95790.41;4951533;28;20174;-70
2023/12/16 02:28:41;;;;;;;0.40;0.40;;;;;;;3.58;95.67;95805.03;4951164;28;20201;-70
2023/12/16 02:31:07;;;;;;;0.50;0.50;;;;;;;3.33;95.50;95757.91;4951991;28;20253;-70
2023/12/16 02:33:32;;;;;;;0.60;0.60;;;;;;;3.67;95.20;95796.34;4970488;28;20173;-70
2023/12/16 02:36:00;;;;;;;0.50;0.50;;;;;;;3.67;94.83;95802.38;4959434;28;20178;-70
2023/12/16 02:38:26;;;;;;;0.40;0.40;;;;;;;3.55;94.57;95819.16;4950912;28;20179;-70
2023/12/16 02:40:52;;;;;;;0.50;0.50;;;;;;;3.69;94.57;95816.09;4950294;28;20198;-70
2023/12/16 02:43:18;;;;;;;0.40;0.40;;;;;;;3.58;94.13;95808.47;4951681;28;20588;-70
2023/12/16 02:45:43;;;;;;;0.40;0.40;;;;;;;3.67;94.37;95817.19;4949375;28;20670;-70
2023/12/16 02:48:12;;;;;;;0.40;0.40;;;;;;;3.60;93.80;95816.13;4950612;28;20792;-71
2023/12/16 02:50:37;;;;;;;0.50;0.50;;;;;;;3.74;94.22;95836.47;4950711;28;20254;-71
2023/12/16 02:53:03;;;;;;;0.40;0.40;;;;;;;3.83;94.27;95827.78;4949583;28;20265;-71
2023/12/16 02:55:29;;;;;;;0.73;0.73;;;;;;;3.84;93.04;95841.63;4950948;28;20166;-71
2023/12/16 02:57:54;;;;;;;0.40;0.40;;;;;;;3.77;93.35;95836.19;4954810;28;20563;-71
2023/12/16 03:00:20;;;;;;;0.40;0.40;;;;;;;3.75;93.35;95840.72;4973438;28;20190;-71
2023/12/16 03:02:46;;;;;;;0.60;0.60;;;;;;;3.91;93.71;95846.09;4973469;28;20261;-70
2023/12/16 03:05:11;;;;;;;0.43;0.43;;;;;;;3.78;93.40;95838.66;4973710;28;20174;-70
2023/12/16 03:07:38;;;;;;;0.40;0.40;;;;;;;3.95;93.12;95857.06;4956394;28;20191;-71
2023/12/16 03:10:06;;;;;;;0.50;0.50;;;;;;;3.93;92.75;95865.03;4954447;28;20179;-70
2023/12/16 03:12:32;;;;;;;0.60;0.60;;;;;;;3.60;92.53;95816.13;4954384;28;20269;-70
2023/12/16 03:14:58;;;;;;;0.50;0.50;;;;;;;3.72;92.87;95841.00;4954461;28;20609;-71
2023/12/16 03:17:23;;;;;;;0.43;0.43;;;;;;;3.65;93.13;95830.34;4954278;28;20245;-71
2023/12/16 03:19:49;;;;;;;0.43;0.43;;;;;;;3.86;93.00;95861.38;4954390;28;20685;-70
2023/12/16 03:22:15;;;;;;;0.40;0.40;;;;;;;3.63;92.92;95831.47;4954291;28;20726;-71
2023/12/16 03:24:40;;;;;;;0.50;0.50;;;;;;;3.65;93.19;95855.56;4954162;28;20172;-71
2023/12/16 03:27:06;;;;;;;0.50;0.50;;;;;;;3.66;93.46;95862.41;4964134;28;20713;-70
2023/12/16 03:29:31;;;;;;;0.50;0.50;;;;;;;3.69;93.60;95860.34;4961313;28;20178;-70
2023/12/16 03:31:58;;;;;;;0.60;0.60;;;;;;;3.73;93.76;95873.88;4954070;28;20186;-70
2023/12/16 03:34:24;;;;;;;0.50;0.50;;;;;;;3.69;93.88;95846.50;4953753;28;20178;-70
2023/12/16 03:36:49;;;;;;;0.50;0.50;;;;;;;3.89;93.58;95876.72;4961678;28;20248;-70
2023/12/16 03:39:15;;;;;;;0.47;0.47;;;;;;;3.56;92.67;95830.38;4972905;28;20177;-70
2023/12/16 03:41:46;;;;;;;0.40;0.40;;;;;;;3.59;92.28;95851.75;4960669;28;20197;-70
2023/12/16 03:44:12;;;;;;;0.50;0.50;;;;;;;3.50;92.21;95870.81;4960346;28;20186;-70
2023/12/16 03:46:38;;;;;;;0.40;0.40;;;;;;;3.58;92.53;95875.31;4972853;28;20185;-71
2023/12/16 03:49:03;;;;;;;1.07;1.07;;;;;;;3.54;92.48;95868.78;4972934;28;20177;-71
2023/12/16 03:51:29;;;;;;;1.37;0.90;;;;;;;3.60;92.42;95865.59;4971349;28;20182;-70
2023/12/16 03:53:55;;;;;;;0.77;0.77;;;;;;;3.64;91.91;95895.56;4972857;28;20185;-71
2023/12/16 03:56:20;;;;;;;0.50;0.50;;;;;;;3.42;91.53;95873.31;4972744;28;20201;-70
2023/12/16 03:58:46;;;;;;;0.50;0.50;;;;;;;3.70;91.87;95906.25;4952514;28;20173;-71
2023/12/16 04:01:13;;;;;;;0.50;0.50;;;;;;;3.41;91.17;95874.28;4953237;28;20198;-71
2023/12/16 04:03:41;;;;;;;0.40;0.40;;;;;;;3.66;90.46;95906.66;4953200;28;20174;-71
2023/12/16 04:06:11;;;;;;;0.50;0.50;;;;;;;3.43;88.47;95874.97;4950989;28;20704;-71
2023/12/16 04:08:38;;;;;;;0.50;0.50;;;;;;;3.75;88.40;95921.44;4953428;28;20237;-71
2023/12/16 04:11:04;;;;;;;0.40;0.40;;;;;;;3.78;87.40;95927.19;4953088;28;20271;-71
2023/12/16 04:13:29;;;;;;;0.50;0.50;;;;;;;3.78;87.36;95919.38;4959977;28;20277;-70
2023/12/16 04:15:55;;;;;;;1.13;1.03;;;;;;;3.77;87.37;95904.72;4972600;28;20253;-71
2023/12/16 04:18:21;;;;;;;0.50;0.50;;;;;;;3.71;86.63;95918.31;4972428;28;20190;-70
2023/12/16 04:20:47;;;;;;;0.40;0.40;;;;;;;3.73;87.51;95921.56;4972428;28;20198;-71
2023/12/16 04:23:12;;;;;;;0.50;0.50;;;;;;;3.75;86.11;95929.25;4959607;28;20197;-71
2023/12/16 04:25:38;;;;;;;1.47;1.37;;;;;;;3.62;85.50;95913.97;4972226;28;20255;-71
2023/12/16 04:28:04;;;;;;;0.50;0.50;;;;;;;3.64;85.06;95932.00;4968848;28;20190;-71
2023/12/16 04:30:29;;;;;;;0.50;0.50;;;;;;;3.69;84.81;95940.25;4961357;28;20178;-71
2023/12/16 04:32:54;;;;;;;0.50;0.50;;;;;;;3.46;84.44;95944.94;4957173;28;20198;-71
2023/12/16 04:35:20;;;;;;;0.50;0.50;;;;;;;3.22;84.73;95936.75;4952839;28;20646;-71
2023/12/16 04:37:45;;;;;;;0.60;0.60;;;;;;;3.28;85.81;95937.03;4953096;28;20585;-71
2023/12/16 04:40:11;;;;;;;0.50;0.50;;;;;;;3.40;86.11;95933.31;4954137;28;20194;-71
2023/12/16 04:42:36;;;;;;;0.50;0.50;;;;;;;3.40;85.58;95940.28;4951771;28;20167;-71
2023/12/16 04:45:02;;;;;;;0.43;0.43;;;;;;;3.46;85.54;95933.72;4952852;28;20182;-71
2023/12/16 04:47:28;;;;;;;0.73;0.73;;;;;;;3.44;84.09;95951.25;4951348;28;20277;-70
2023/12/16 04:49:53;;;;;;;0.40;0.40;;;;;;;3.41;84.83;95958.38;4952844;28;20262;-71
2023/12/16 04:52:18;;;;;;;0.50;0.50;;;;;;;3.35;84.34;95939.91;4952177;28;20190;-72
2023/12/16 04:54:45;;;;;;;0.50;0.50;;;;;;;3.49;83.98;95978.50;4952825;28;20210;-71
2023/12/16 04:57:10;;;;;;;0.50;0.50;;;;;;;3.47;84.00;95971.78;4953360;28;20212;-71
2023/12/16 04:59:36;;;;;;;0.50;0.50;;;;;;;3.51;83.29;95966.16;4951774;28;20969;-71
2023/12/16 05:02:02;;;;;;;0.50;0.50;;;;;;;3.53;82.52;95966.03;4952777;28;20206;-70
2023/12/16 05:04:27;;;;;;;0.60;0.60;;;;;;;3.22;82.96;95941.97;4952882;28;20182;-70
2023/12/16 05:06:53;;;;;;;0.40;0.40;;;;;;;3.27;83.54;95964.03;4952790;28;20193;-70
2023/12/16 05:09:18;;;;;;;0.40;0.40;;;;;;;3.38;83.71;95968.22;4952236;28;20662;-70
2023/12/16 05:11:44;;;;;;;0.50;0.50;;;;;;;3.32;84.18;95981.81;4951496;28;20174;-70
2023/12/16 05:14:10;;;;;;;0.50;0.50;;;;;;;3.38;83.92;95989.88;4956481;28;20261;-72
2023/12/16 05:16:35;;;;;;;0.70;0.70;;;;;;;3.31;83.46;95986.19;4955113;28;20179;-72
2023/12/16 05:19:03;;;;;;;0.77;0.77;;;;;;;3.32;83.38;95995.63;4951527;28;20522;-71
2023/12/16 05:21:29;;;;;;;0.50;0.50;;;;;;;3.30;84.11;95992.34;4948488;28;20884;-70
2023/12/16 05:23:54;;;;;;;2.33;1.33;;;;;;;3.22;84.85;95996.59;4949187;28;20201;-70
2023/12/16 05:26:21;;;;;;;0.50;0.50;;;;;;;3.19;85.19;96005.50;4950975;28;20182;-70
2023/12/16 05:28:46;;;;;;;0.63;0.63;;;;;;;3.07;86.84;96004.00;4951338;28;20170;-70
2023/12/16 05:31:12;;;;;;;0.50;0.50;;;;;;;3.16;87.15;95999.75;4951316;28;20185;-70
2023/12/16 05:33:37;;;;;;;3.20;1.13;;;;;;;3.28;86.37;96009.91;4951491;28;20709;-70
2023/12/16 05:36:03;;;;;;;0.40;0.40;;;;;;;3.31;86.39;96009.59;4951676;28;20269;-71
2023/12/16 05:38:29;;;;;;;0.40;0.40;;;;;;;3.20;86.77;96017.53;4952190;28;20182;-71
2023/12/16 05:40:54;;;;;;;0.50;0.50;;;;;;;3.33;87.17;96025.91;4952328;28;20206;-71
2023/12/16 05:43:20;;;;;;;0.50;0.50;;;;;;;3.27;86.95;96021.25;4951788;28;20182;-70
2023/12/16 05:45:45;;;;;;;0.50;0.50;;;;;;;3.21;87.64;96026.16;4950281;28;20182;-70
2023/12/16 05:48:11;;;;;;;0.57;0.57;;;;;;;3.29;88.27;96010.69;4951461;28;20222;-70
2023/12/16 05:50:37;;;;;;;0.60;0.60;;;;;;;3.25;87.84;96011.94;4951682;28;20193;-70
2023/12/16 05:53:02;;;;;;;0.60;0.60;;;;;;;3.31;88.64;96011.38;4951929;28;20186;-70
2023/12/16 05:55:28;;;;;;;0.47;0.47;;;;;;;3.29;88.74;96019.31;4951542;28;20194;-70
2023/12/16 05:57:53;;;;;;;0.50;0.50;;;;;;;3.30;88.52;96023.56;4951669;28;20541;-70
2023/12/16 06:00:19;;;;;;;0.40;0.40;;;;;;;3.27;88.46;96023.88;4951524;28;20179;-70
2023/12/16 06:02:44;;;;;;;0.50;0.50;;;;;;;3.40;88.59;96010.56;4951887;28;20182;-70
2023/12/16 06:05:10;;;;;;;0.47;0.47;;;;;;;3.50;87.80;96010.56;4952021;28;20182;-70
2023/12/16 06:07:36;;;;;;;0.50;0.50;;;;;;;3.50;87.34;96026.16;4951915;28;20754;-71
2023/12/16 06:10:01;;;;;;;0.40;0.40;;;;;;;3.47;87.38;96031.63;4950664;28;20182;-70
2023/12/16 06:12:26;;;;;;;0.60;0.60;;;;;;;3.46;87.27;96032.63;4951863;28;20201;-71
2023/12/16 06:14:52;;;;;;;0.73;0.73;;;;;;;3.40;88.23;96044.38;4952138;28;20571;-70
2023/12/16 06:17:17;;;;;;;0.40;0.40;;;;;;;3.28;88.46;96050.72;4952086;28;20182;-70
2023/12/16 06:19:43;;;;;;;0.50;0.50;;;;;;;3.06;88.20;96030.13;4952400;28;20175;-71
2023/12/16 06:22:08;;;;;;;0.50;0.50;;;;;;;3.27;88.13;96055.09;4951974;28;20194;-70
2023/12/16 06:24:34;;;;;;;0.83;0.83;;;;;;;3.18;85.99;96061.09;4951752;28;20182;-70
2023/12/16 06:26:59;;;;;;;0.50;0.50;;;;;;;3.39;86.08;96073.97;4951739;28;20229;-70
2023/12/16 06:29:25;;;;;;;0.50;0.50;;;;;;;3.40;85.48;96068.63;4959041;28;20166;-71
2023/12/16 06:31:50;;;;;;;0.50;0.50;;;;;;;3.37;85.12;96052.50;4970965;28;20313;-70
2023/12/16 06:34:16;;;;;;;0.67;0.67;;;;;;;3.47;85.08;96075.88;4971738;28;20178;-71
2023/12/16 06:36:42;;;;;;;0.50;0.50;;;;;;;3.27;85.08;96068.09;4974890;28;20208;-71
2023/12/16 06:39:08;;;;;;;0.50;0.50;;;;;;;3.43;86.16;96093.56;4974658;28;20788;-71
2023/12/16 06:41:33;;;;;;;0.50;0.50;;;;;;;3.44;86.75;96087.41;4974671;28;20216;-71
2023/12/16 06:43:59;;;;;;;0.50;0.50;;;;;;;3.39;87.22;96076.56;4974789;28;20228;-71
2023/12/16 06:46:24;;;;;;;0.50;0.50;;;;;;;3.62;88.86;96098.78;4974642;28;20196;-71
2023/12/16 06:48:50;;;;;;;0.47;0.47;;;;;;;3.67;88.64;96098.38;4974427;28;20252;-70
2023/12/16 06:51:15;;;;;;;0.50;0.50;;;;;;;3.71;89.08;96110.16;4974713;28;20177;-70
2023/12/16 06:53:40;;;;;;;0.40;0.40;;;;;;;3.74;88.56;96115.06;4974336;28;20181;-70
2023/12/16 06:56:09;;;;;;;0.40;0.40;;;;;;;3.74;88.71;96115.06;4958823;28;20179;-70
2023/12/16 06:58:35;;;;;;;0.40;0.40;;;;;;;3.70;89.18;96116.31;4955217;28;20629;-71
2023/12/16 07:01:00;;;;;;;0.70;0.70;;;;;;;3.44;89.43;96139.47;4954858;28;20202;-70
2023/12/16 07:03:28;;;;;;;0.60;0.60;;;;;;;3.21;90.52;96127.63;4954560;28;20189;-70
2023/12/16 07:05:54;;;;;;;0.40;0.40;;;;;;;3.11;91.25;96138.03;4954608;28;20182;-70
2023/12/16 07:08:20;;;;;;;0.40;0.40;;;;;;;3.00;91.86;96140.75;4954038;28;20427;-70
2023/12/16 07:10:45;;;;;;;1.20;1.20;;;;;;;2.86;92.42;96143.69;4954782;28;20656;-70
2023/12/16 07:13:11;;;;;;;0.40;0.40;;;;;;;2.85;93.06;96147.28;4954893;28;20183;-70
2023/12/16 07:15:38;;;;;;;0.47;0.47;;;;;;;2.94;93.30;96149.06;4973917;28;20185;-70
2023/12/16 07:18:03;;;;;;;0.50;0.50;;;;;;;2.83;93.35;96165.59;4973707;28;20181;-70
2023/12/16 07:20:29;;;;;;;0.50;0.50;;;;;;;2.70;93.39;96166.75;4973649;28;20186;-70
2023/12/16 07:22:55;;;;;;;0.70;0.70;;;;;;;2.57;94.07;96148.78;4973400;28;20256;-70
2023/12/16 07:25:21;;;;;;;0.50;0.50;;;;;;;2.55;94.48;96155.88;4973518;28;20178;-70
2023/12/16 07:27:47;;;;;;;0.50;0.50;;;;;;;2.60;94.86;96167.53;4967731;28;20193;-69
2023/12/16 07:30:13;;;;;;;0.50;0.50;;;;;;;2.50;95.32;96152.84;4954455;28;20265;-70
2023/12/16 07:32:40;;;;;;;0.40;0.40;;;;;;;2.70;95.74;96153.75;4954323;28;20676;-70
2023/12/16 07:35:08;;;;;;;0.60;0.60;;;;;;;2.93;96.31;96166.47;4954217;28;20166;-69
2023/12/16 07:37:34;;;;;;;0.70;0.70;;;;;;;3.03;95.39;96176.88;4954115;28;20208;-70
2023/12/16 07:39:59;;;;;;;0.50;0.50;;;;;;;3.09;95.34;96173.75;4954148;28;20218;-70
2023/12/16 07:42:25;;;;;;;0.40;0.40;;;;;;;3.26;95.01;96172.31;4965245;28;20198;-71
2023/12/16 07:44:51;;;;;;;0.50;0.50;;;;;;;3.31;94.44;96170.94;4972805;28;20182;-70
2023/12/16 07:47:17;;;;;;;0.50;0.50;;;;;;;3.20;93.15;96178.84;4973137;28;20229;-70
2023/12/16 07:49:42;;;;;;;0.60;0.60;;;;;;;3.28;93.47;96181.63;4971793;28;20252;-68
2023/12/16 07:52:08;;;;;;;0.40;0.40;;;;;;;3.23;92.83;96178.59;4972711;28;20180;-69
2023/12/16 07:54:36;;;;;;;0.40;0.40;;;;;;;3.16;92.99;96185.28;4972490;28;20552;-69
2023/12/16 07:57:01;;;;;;;0.50;0.50;;;;;;;3.20;93.68;96186.63;4972692;28;20257;-69
2023/12/16 07:59:27;;;;;;;0.53;0.53;;;;;;;2.89;93.20;96172.84;4972930;28;20289;-69
2023/12/16 08:01:53;;;;;;;2.47;1.10;;;;;;;2.87;93.89;96194.72;4972969;28;20579;-70
2023/12/16 08:04:19;;;;;;;0.80;0.80;;;;;;;2.96;94.42;96194.78;4964808;28;20190;-70
2023/12/16 08:06:44;;;;;;;0.40;0.40;;;;;;;3.10;94.61;96203.19;4953484;28;20661;-69
2023/12/16 08:09:10;;;;;;;0.50;0.50;;;;;;;3.06;94.75;96207.81;4953789;28;20253;-69
2023/12/16 08:11:36;;;;;;;0.50;0.50;;;;;;;3.10;94.53;96211.00;4953542;28;20182;-69
2023/12/16 08:14:02;;;;;;;0.40;0.40;;;;;;;3.16;94.46;96197.47;4953611;28;20626;-69
2023/12/16 08:16:28;;;;;;;0.40;0.40;;;;;;;3.19;93.47;96218.84;4952842;28;20626;-69
2023/12/16 08:18:53;;;;;;;0.50;0.50;;;;;;;3.19;93.44;96211.03;4953107;28;20213;-70
2023/12/16 08:21:20;;;;;;;0.60;0.60;;;;;;;3.30;93.48;96216.13;4953195;28;20218;-69
2023/12/16 08:23:46;;;;;;;0.50;0.50;;;;;;;3.26;93.16;96230.38;4953110;28;20171;-70
2023/12/16 08:26:11;;;;;;;0.47;0.47;;;;;;;3.08;93.10;96228.50;4952910;28;20547;-70
2023/12/16 08:28:37;;;;;;;1.03;1.03;;;;;;;2.90;93.90;96236.91;4953334;28;20669;-70
2023/12/16 08:31:03;;;;;;;0.93;0.93;;;;;;;2.88;94.77;96231.00;4953205;28;20178;-69
2023/12/16 08:33:29;;;;;;;0.57;0.57;;;;;;;2.96;94.87;96236.38;4951766;28;20205;-70
2023/12/16 08:35:56;;;;;;;0.50;0.50;;;;;;;3.13;95.26;96234.94;4953219;28;20245;-70
2023/12/16 08:38:22;;;;;;;0.77;0.77;;;;;;;3.14;94.38;96234.00;4953400;28;20238;-70
2023/12/16 08:40:47;;;;;;;0.50;0.50;;;;;;;3.24;93.55;96236.66;4953469;28;20217;-70
2023/12/16 08:43:13;;;;;;;0.40;0.40;;;;;;;3.33;93.36;96223.69;4953261;28;20213;-70
2023/12/16 08:45:39;;;;;;;0.40;0.40;;;;;;;3.27;92.16;96220.78;4954487;28;20257;-70
2023/12/16 08:48:04;;;;;;;0.53;0.53;;;;;;;3.33;93.28;96228.88;4972277;28;20308;-71
2023/12/16 08:50:30;;;;;;;0.60;0.60;;;;;;;3.13;92.31;96231.53;4972389;28;20604;-71
2023/12/16 08:52:56;;;;;;;0.50;0.50;;;;;;;3.15;92.69;96234.81;4972312;28;20181;-70
2023/12/16 08:55:24;;;;;;;0.50;0.50;;;;;;;3.06;93.31;96233.00;4959961;28;20242;-70
2023/12/16 08:57:50;;;;;;;0.70;0.70;;;;;;;2.85;93.44;96220.06;4950724;28;20191;-70
2023/12/16 09:00:16;;;;;;;0.73;0.73;;;;;;;2.99;94.33;96222.31;4952174;28;20221;-70
2023/12/16 09:02:41;;;;;;;2.97;0.63;;;;;;;3.06;93.77;96240.81;4952505;28;20924;-72
2023/12/16 09:05:07;;;;;;;0.60;0.60;;;;;;;2.91;93.85;96229.94;4952427;28;20179;-70
2023/12/16 09:07:34;;;;;;;0.60;0.60;;;;;;;2.76;93.65;96229.47;4968356;28;20205;-71
2023/12/16 09:09:59;;;;;;;0.70;0.70;;;;;;;2.75;94.12;96230.41;4967865;28;20197;-69
2023/12/16 09:12:25;;;;;;;1.63;1.53;;;;;;;2.71;94.69;96223.00;4952521;28;20532;-71
2023/12/16 09:14:50;;;;;;;0.60;0.60;;;;;;;2.74;94.68;96214.94;4952298;28;20187;-70
2023/12/16 09:17:15;;;;;;;0.60;0.60;;;;;;;2.93;95.42;96213.25;4952062;28;20173;-70
2023/12/16 09:19:41;;;;;;;0.50;0.50;;;;;;;3.08;94.14;96203.31;4952202;28;20631;-70
2023/12/16 09:22:07;;;;;;;0.50;0.50;;;;;;;3.27;93.94;96213.81;4952331;28;20251;-70
2023/12/16 09:24:35;;;;;;;0.50;0.50;;;;;;;3.11;92.77;96220.47;4952317;28;20293;-69
2023/12/16 09:27:01;;;;;;;1.27;1.27;;;;;;;3.13;92.97;96213.31;4952441;28;20194;-69
2023/12/16 09:29:27;;;;;;;0.90;0.83;;;;;;;3.07;92.96;96180.88;4950888;28;20221;-69
2023/12/16 09:31:52;;;;;;;0.80;0.80;;;;;;;3.30;92.38;96204.88;4952025;28;20179;-69
2023/12/16 09:34:17;;;;;;;0.60;0.60;;;;;;;3.18;91.87;96208.56;4951858;28;20198;-69
2023/12/16 09:36:43;;;;;;;0.40;0.40;;;;;;;3.34;92.43;96207.09;4951300;28;20194;-69
2023/12/16 09:39:10;;;;;;;0.57;0.57;;;;;;;3.39;92.12;96204.09;4951695;28;20668;-70
2023/12/16 09:41:42;;;;;;;1.07;1.07;;;;;;;3.46;91.60;96204.41;4951656;28;20225;-70
2023/12/16 09:44:09;;;;;;;0.50;0.50;;;;;;;3.28;91.25;96186.81;4950163;28;20629;-70
2023/12/16 09:46:36;;;;;;;0.47;0.47;;;;;;;3.39;91.79;96204.09;4949778;28;20183;-72
2023/12/16 09:49:05;;;;;;;0.53;0.53;;;;;;;3.40;92.46;96192.72;4949550;28;20629;-70
2023/12/16 09:51:30;;;;;;;1.53;1.27;;;;;;;3.39;91.43;96207.53;4948708;28;20541;-70
2023/12/16 09:53:56;;;;;;;1.20;0.80;;;;;;;3.08;90.97;96210.31;4950581;28;20186;-70
2023/12/16 09:56:22;;;;;;;0.60;0.60;;;;;;;3.21;91.34;96208.28;4950222;28;20171;-70
2023/12/16 09:58:51;;;;;;;1.23;0.73;;;;;;;3.37;91.81;96204.22;4950476;28;20186;-70
2023/12/16 10:01:17;;;;;;;0.60;0.60;;;;;;;3.25;91.00;96204.47;4950141;28;20206;-70
2023/12/16 10:03:46;;;;;;;0.70;0.70;;;;;;;3.12;91.46;96191.69;4949080;28;20186;-70
2023/12/16 10:06:11;;;;;;;0.50;0.50;;;;;;;3.40;91.63;96213.53;4949960;28;20285;-70
2023/12/16 10:08:39;;;;;;;1.07;1.07;;;;;;;3.65;91.88;96209.63;4949152;28;20925;-71
2023/12/16 10:11:06;;;;;;;0.50;0.50;;;;;;;3.60;89.94;96207.44;4950326;28;20263;-70
2023/12/16 10:13:33;;;;;;;0.80;0.80;;;;;;;3.54;89.60;96186.34;4950754;28;20642;-70
2023/12/16 10:16:00;;;;;;;0.73;0.73;;;;;;;3.33;88.51;96182.03;4950420;28;20209;-70
2023/12/16 10:18:30;;;;;;;0.60;0.60;;;;;;;3.53;88.72;96202.91;4950889;28;20189;-70
2023/12/16 10:20:55;;;;;;;0.90;0.83;;;;;;;3.52;89.04;96198.66;4950665;28;20203;-70
2023/12/16 10:23:24;;;;;;;0.60;0.60;;;;;;;3.70;89.30;96205.69;4951196;28;20221;-70
2023/12/16 10:25:50;;;;;;;0.60;0.60;;;;;;;3.72;87.21;96206.34;4950861;28;20276;-70
2023/12/16 10:28:16;;;;;;;0.97;0.97;;;;;;;3.77;87.46;96211.16;4951073;28;20716;-70
2023/12/16 10:30:42;;;;;;;0.50;0.50;;;;;;;3.62;87.39;96210.75;4950801;28;20178;-69
2023/12/16 10:33:08;;;;;;;0.40;0.40;;;;;;;3.53;87.97;96205.50;4950837;28;20201;-70
2023/12/16 10:35:34;;;;;;;0.60;0.60;;;;;;;3.62;88.27;96196.91;4950622;28;20673;-70
2023/12/16 10:37:59;;;;;;;0.80;0.80;;;;;;;3.73;87.57;96209.78;4950826;28;20187;-70
2023/12/16 10:40:26;;;;;;;0.67;0.67;;;;;;;3.52;86.51;96203.84;4950824;28;20241;-70
2023/12/16 10:42:52;;;;;;;0.70;0.70;;;;;;;3.38;87.30;96208.47;4950975;28;20182;-70
2023/12/16 10:45:17;;;;;;;0.73;0.73;;;;;;;3.47;87.43;96201.63;4950651;28;20230;-70
2023/12/16 10:47:49;;;;;;;0.60;0.60;;;;;;;3.48;86.95;96192.06;4950963;28;20222;-70
2023/12/16 10:50:16;;;;;;;0.50;0.50;;;;;;;3.54;87.75;96181.97;4950578;28;20245;-70
2023/12/16 10:53:10;;;;;;;0.60;0.60;;;;;;;3.66;86.59;96203.47;4950591;28;20174;-70
2023/12/16 10:55:54;;;;;;;0.50;0.50;;;;;;;3.78;86.00;96215.41;4949354;28;20654;-70
2023/12/16 10:58:27;;;;;;;0.57;0.57;;;;;;;3.70;86.15;96210.06;4949342;28;20237;-70
2023/12/16 11:01:02;;;;;;;0.40;0.40;;;;;;;3.94;86.05;96207.88;4950400;28;20233;-70
2023/12/16 11:03:36;;;;;;;0.60;0.60;;;;;;;3.98;84.35;96206.63;4950526;28;20170;-70
2023/12/16 11:06:13;;;;;;;0.50;0.50;;;;;;;4.17;84.07;96227.50;4949208;28;20568;-70
2023/12/16 11:08:39;;;;;;;0.40;0.40;;;;;;;4.37;84.68;96222.28;4950279;28;20182;-70
2023/12/16 11:11:06;;;;;;;0.70;0.70;;;;;;;4.41;82.92;96226.25;4950243;28;20255;-70
2023/12/16 11:13:32;;;;;;;0.70;0.70;;;;;;;4.45;82.25;96235.44;4950617;28;20174;-70
2023/12/16 11:16:15;;;;;;;0.50;0.50;;;;;;;4.55;82.81;96210.19;4950321;28;20224;-71
2023/12/16 11:18:44;;;;;;;1.50;1.37;;;;;;;4.58;82.82;96209.09;4950673;28;20631;-71
2023/12/16 11:21:13;;;;;;;0.53;0.53;;;;;;;4.53;81.86;96186.84;4952863;28;20292;-70
2023/12/16 11:23:45;;;;;;;2.30;2.20;;;;;;;4.83;81.40;96211.91;4954313;28;20182;-70
2023/12/16 11:26:11;;;;;;;0.63;0.63;;;;;;;4.84;81.48;96207.50;4954327;28;20186;-69
2023/12/16 11:28:37;;;;;;;0.60;0.60;;;;;;;4.90;81.81;96205.16;4954375;28;20174;-69
2023/12/16 11:31:03;;;;;;;0.53;0.53;;;;;;;4.85;80.56;96201.31;4954047;28;20185;-70
2023/12/16 11:33:46;;;;;;;0.83;0.83;;;;;;;4.91;81.62;96208.59;4953112;28;20185;-70
2023/12/16 11:36:12;;;;;;;2.63;2.53;;;;;;;5.08;82.71;96213.06;4954135;28;20179;-70